createdAt,value
2019-03-28T00:03:12.651Z,103630.64
2019-03-28T00:08:15.288Z,103632.38
2019-03-28T00:13:19.283Z,103635.98
2019-03-28T00:18:21.803Z,103628.50
2019-03-28T00:23:45.850Z,103630.31
2019-03-28T00:28:48.473Z,103621.66
2019-03-28T00:33:51.196Z,103618.16
2019-03-28T00:38:53.852Z,103645.68
2019-03-28T00:43:56.697Z,103637.38
2019-03-28T00:48:59.264Z,103633.55
2019-03-28T00:54:02.352Z,103636.23
2019-03-28T00:59:07.941Z,103632.33
2019-03-28T01:04:10.834Z,103628.23
2019-03-28T01:09:13.410Z,103623.97
2019-03-28T01:14:16.272Z,103621.70
2019-03-28T01:19:18.915Z,103617.94
2019-03-28T01:24:21.773Z,103614.56
2019-03-28T01:29:24.411Z,103628.07
2019-03-28T01:34:30.312Z,103619.70
2019-03-28T01:39:32.942Z,103619.70
2019-03-28T01:44:35.501Z,103628.67
2019-03-28T01:49:38.056Z,103626.97
2019-03-28T01:54:40.782Z,103622.93
2019-03-28T01:59:43.499Z,103618.29
2019-03-28T02:04:46.235Z,103613.23
2019-03-28T02:09:51.557Z,103617.30
2019-03-28T02:14:56.171Z,103616.23
2019-03-28T02:20:01.808Z,103621.29
2019-03-28T02:25:05.454Z,103614.30
2019-03-28T02:30:08.742Z,103614.03
2019-03-28T02:35:11.949Z,103613.13
2019-03-28T02:40:14.586Z,103609.13
2019-03-28T02:45:17.512Z,103612.13
2019-03-28T02:50:22.141Z,103610.77
2019-03-28T02:55:24.789Z,103609.73
2019-03-28T03:00:27.408Z,103609.80
2019-03-28T03:05:30.268Z,103600.19
2019-03-28T03:10:32.844Z,103604.79
2019-03-28T03:15:38.555Z,103606.34
2019-03-28T03:20:41.514Z,103605.73
2019-03-28T03:25:46.437Z,103604.58
2019-03-28T03:30:48.998Z,103600.98
2019-03-28T03:35:51.965Z,103608.00
2019-03-28T03:40:54.897Z,103599.91
2019-03-28T03:45:58.390Z,103604.00
2019-03-28T03:51:01.071Z,103609.28
2019-03-28T03:56:04.010Z,103603.98
2019-03-28T04:01:06.908Z,103610.66
2019-03-28T04:06:09.827Z,103604.89
2019-03-28T04:11:12.485Z,103605.61
2019-03-28T04:16:15.190Z,103611.70
2019-03-28T04:21:17.937Z,103613.81
2019-03-28T04:26:20.698Z,103620.40
2019-03-28T04:31:26.108Z,103621.41
2019-03-28T04:36:29.024Z,103629.57
2019-03-28T04:41:31.657Z,103636.77
2019-03-28T04:46:34.557Z,103626.48
2019-03-28T04:51:38.852Z,103623.15
2019-03-28T04:56:41.544Z,103627.14
2019-03-28T05:01:44.108Z,103633.88
2019-03-28T05:06:46.704Z,103636.80
2019-03-28T05:11:49.308Z,103633.63
2019-03-28T05:16:53.089Z,103629.23
2019-03-28T05:21:56.403Z,103624.76
2019-03-28T05:26:59.221Z,103630.02
2019-03-28T05:32:01.849Z,103632.30
2019-03-28T05:37:04.821Z,103634.38
2019-03-28T05:42:10.164Z,103640.66
2019-03-28T05:47:13.021Z,103643.43
2019-03-28T05:52:15.588Z,103645.89
2019-03-28T05:57:18.609Z,103643.15
2019-03-28T06:02:21.346Z,103646.27
2019-03-28T06:07:31.094Z,103658.08
2019-03-28T06:12:33.666Z,103653.25
2019-03-28T06:17:36.338Z,103659.80
2019-03-28T06:22:39.567Z,103662.50
2019-03-28T06:27:42.402Z,103667.73
2019-03-28T06:32:45.258Z,103668.41
2019-03-28T06:37:51.580Z,103677.84
2019-03-28T06:42:54.540Z,103683.25
2019-03-28T06:47:57.114Z,103691.22
2019-03-28T06:52:59.693Z,103692.98
2019-03-28T06:58:02.339Z,103694.37
2019-03-28T07:03:05.257Z,103697.87
2019-03-28T07:08:07.863Z,103708.29
2019-03-28T07:13:10.628Z,103698.52
2019-03-28T07:18:16.019Z,103704.02
2019-03-28T07:23:19.006Z,103699.62
2019-03-28T07:28:21.833Z,103701.48
2019-03-28T07:33:26.947Z,103699.36
2019-03-28T07:38:30.436Z,103695.02
2019-03-28T07:43:33.246Z,103703.77
2019-03-28T07:48:35.842Z,103694.83
2019-03-28T07:53:38.878Z,103693.67
2019-03-28T07:58:44.146Z,103701.55
2019-03-28T08:03:47.989Z,103703.23
2019-03-28T08:08:50.577Z,103703.23
2019-03-28T08:13:56.404Z,103711.44
2019-03-28T08:18:59.168Z,103707.38
2019-03-28T08:24:01.987Z,103705.95
2019-03-28T08:29:04.768Z,103711.16
2019-03-28T08:34:07.789Z,103710.80
2019-03-28T08:39:10.436Z,103703.59
2019-03-28T08:44:13.013Z,103713.58
2019-03-28T08:49:18.435Z,103719.27
2019-03-28T08:54:22.343Z,103719.03
2019-03-28T08:59:24.958Z,103718.30
2019-03-28T09:04:27.653Z,103711.83
2019-03-28T09:09:32.738Z,103711.83
2019-03-28T09:14:37.081Z,103725.42
2019-03-28T09:19:42.660Z,103721.48
2019-03-28T09:24:45.454Z,103721.48
2019-03-28T09:29:48.092Z,103730.91
2019-03-28T09:34:50.985Z,103727.05
2019-03-28T09:39:54.281Z,103722.57
2019-03-28T09:45:00.014Z,103725.25
2019-03-28T09:50:02.597Z,103723.78
2019-03-28T09:55:05.659Z,103725.05
2019-03-28T10:00:09.965Z,103722.08
2019-03-28T10:05:14.329Z,103727.59
2019-03-28T10:10:18.710Z,103727.59
2019-03-28T10:15:21.589Z,103725.95
2019-03-28T10:20:24.310Z,103724.28
2019-03-28T10:25:27.128Z,103721.32
2019-03-28T10:30:44.961Z,103722.53
2019-03-28T10:35:50.470Z,103729.55
2019-03-28T10:40:53.052Z,103731.39
2019-03-28T10:45:58.999Z,103732.42
2019-03-28T10:51:02.587Z,103743.28
2019-03-28T10:56:05.686Z,103731.19
2019-03-28T11:01:08.402Z,103731.19
2019-03-28T11:06:11.209Z,103724.97
2019-03-28T11:11:13.786Z,103726.88
2019-03-28T11:16:19.517Z,103730.42
2019-03-28T11:21:25.229Z,103731.34
2019-03-28T11:26:31.478Z,103731.34
2019-03-28T11:31:45.528Z,103734.02
2019-03-28T11:36:39.291Z,103727.83
2019-03-28T11:41:41.923Z,103728.72
2019-03-28T11:46:46.664Z,103728.12
2019-03-28T11:51:50.306Z,103724.67
2019-03-28T11:57:00.768Z,103723.14
2019-03-28T12:02:19.077Z,103723.91
2019-03-28T12:07:09.509Z,103723.22
2019-03-28T12:12:14.726Z,103723.22
2019-03-28T12:17:24.083Z,103723.91
2019-03-28T12:22:26.680Z,103715.30
2019-03-28T12:27:30.764Z,103717.11
2019-03-28T12:32:33.277Z,103714.23
2019-03-28T12:37:36.679Z,103704.19
2019-03-28T12:42:39.792Z,103699.44
2019-03-28T12:47:43.213Z,103704.23
2019-03-28T12:52:46.186Z,103703.63
2019-03-28T12:57:51.597Z,103698.23
2019-03-28T13:02:54.743Z,103691.73
2019-03-28T13:07:57.338Z,103694.71
2019-03-28T13:13:01.221Z,103690.52
2019-03-28T13:18:06.606Z,103689.67
2019-03-28T13:23:09.223Z,103677.78
2019-03-28T13:28:11.792Z,103677.42
2019-03-28T13:33:14.597Z,103672.03
2019-03-28T13:38:17.173Z,103671.64
2019-03-28T13:43:19.766Z,103677.84
2019-03-28T13:48:25.024Z,103676.20
2019-03-28T13:53:39.373Z,103670.66
2019-03-28T13:58:34.897Z,103668.06
2019-03-28T14:03:41.378Z,103664.63
2019-03-28T14:08:45.524Z,103666.58
2019-03-28T14:13:48.247Z,103661.59
2019-03-28T14:18:50.831Z,103657.66
2019-03-28T14:23:53.873Z,103655.83
2019-03-28T14:28:56.478Z,103649.41
2019-03-28T14:33:59.330Z,103653.20
2019-03-28T14:39:01.939Z,103645.59
2019-03-28T14:44:04.592Z,103650.41
2019-03-28T14:49:07.281Z,103644.84
2019-03-28T14:54:13.119Z,103646.42
2019-03-28T14:59:31.396Z,103636.72
2019-03-28T15:04:23.422Z,103635.25
2019-03-28T15:09:25.992Z,103636.42
2019-03-28T15:14:28.624Z,103635.05
2019-03-28T15:19:31.277Z,103633.59
2019-03-28T15:24:36.592Z,103631.80
2019-03-28T15:29:39.168Z,103622.14
2019-03-28T15:34:43.049Z,103624.28
2019-03-28T15:39:49.305Z,103621.64
2019-03-28T15:44:54.777Z,103619.92
2019-03-28T15:49:57.431Z,103606.95
2019-03-28T15:55:02.255Z,103598.63
2019-03-28T16:00:08.947Z,103601.20
2019-03-28T16:05:13.814Z,103604.09
2019-03-28T16:10:19.073Z,103592.25
2019-03-28T16:15:22.866Z,103597.02
2019-03-28T16:20:25.623Z,103596.55
2019-03-28T16:25:28.599Z,103601.55
2019-03-28T16:30:37.584Z,103598.78
2019-03-28T16:35:40.275Z,103606.74
2019-03-28T16:40:46.490Z,103599.63
2019-03-28T16:45:51.790Z,103596.13
2019-03-28T16:50:54.758Z,103585.28
2019-03-28T16:55:57.480Z,103588.48
2019-03-28T17:01:01.529Z,103585.14
2019-03-28T17:06:05.679Z,103585.14
2019-03-28T17:11:08.260Z,103575.97
2019-03-28T17:16:11.542Z,103575.97
2019-03-28T17:21:14.366Z,103583.05
2019-03-28T17:26:19.735Z,103587.62
2019-03-28T17:31:25.111Z,103589.83
2019-03-28T17:36:30.047Z,103591.17
2019-03-28T17:41:32.601Z,103586.28
2019-03-28T17:46:35.332Z,103579.93
2019-03-28T17:51:40.515Z,103585.37
2019-03-28T17:56:42.654Z,103580.96
2019-03-28T18:01:45.318Z,103589.09
2019-03-28T18:06:48.292Z,103584.88
2019-03-28T18:11:51.006Z,103590.38
2019-03-28T18:16:59.964Z,103585.60
2019-03-28T18:22:04.005Z,103588.36
2019-03-28T18:27:07.139Z,103588.36
2019-03-28T18:32:09.690Z,103596.47
2019-03-28T18:37:12.340Z,103600.36
2019-03-28T18:42:16.465Z,103594.91
2019-03-28T18:47:21.856Z,103598.64
2019-03-28T18:52:26.420Z,103602.98
2019-03-28T18:57:32.488Z,103595.88
2019-03-28T19:02:35.120Z,103599.78
2019-03-28T19:07:37.777Z,103600.75
2019-03-28T19:12:40.327Z,103598.17
2019-03-28T19:17:42.906Z,103598.28
2019-03-28T19:22:50.261Z,103595.87
2019-03-28T19:27:54.079Z,103602.09
2019-03-28T19:32:57.887Z,103598.47
2019-03-28T19:38:03.792Z,103608.91
2019-03-28T19:43:19.711Z,103606.41
2019-03-28T19:48:12.651Z,103597.41
2019-03-28T19:53:15.266Z,103597.41
2019-03-28T19:58:17.850Z,103601.02
2019-03-28T20:03:23.171Z,103607.88
2019-03-28T20:08:26.258Z,103609.08
2019-03-28T20:13:31.058Z,103606.48
2019-03-28T20:18:35.898Z,103609.27
2019-03-28T20:23:40.876Z,103606.73
2019-03-28T20:28:43.509Z,103621.27
2019-03-28T20:33:48.872Z,103611.60
2019-03-28T20:39:03.764Z,103625.16
2019-03-28T20:43:58.705Z,103622.81
2019-03-28T20:49:01.255Z,103636.42
2019-03-28T20:54:07.791Z,103632.30
2019-03-28T20:59:12.005Z,103629.30
2019-03-28T21:04:16.090Z,103629.60
2019-03-28T21:09:20.456Z,103630.63
2019-03-28T21:14:23.209Z,103636.17
2019-03-28T21:19:28.353Z,103635.88
2019-03-28T21:24:31.197Z,103638.32
2019-03-28T21:29:34.143Z,103638.64
2019-03-28T21:34:36.732Z,103646.19
2019-03-28T21:39:41.886Z,103644.77
2019-03-28T21:44:48.766Z,103647.20
2019-03-28T21:49:52.105Z,103647.13
2019-03-28T21:54:54.699Z,103639.27
2019-03-28T21:59:57.249Z,103645.48
2019-03-28T22:05:00.988Z,103629.13
2019-03-28T22:10:08.681Z,103629.41
2019-03-28T22:15:15.920Z,103629.55
2019-03-28T22:20:18.527Z,103628.88
2019-03-28T22:25:23.111Z,103628.06
2019-03-28T22:30:25.760Z,103631.05
2019-03-28T22:35:28.354Z,103622.88
2019-03-28T22:40:31.030Z,103623.76
2019-03-28T22:45:33.811Z,103621.05
2019-03-28T22:50:38.611Z,103616.61
2019-03-28T22:55:41.160Z,103614.27
2019-03-28T23:00:45.548Z,103605.11
2019-03-28T23:05:48.210Z,103612.52
2019-03-28T23:10:50.758Z,103611.67
2019-03-28T23:16:01.352Z,103615.16
2019-03-28T23:21:03.922Z,103603.06
2019-03-28T23:26:06.571Z,103599.70
2019-03-28T23:31:12.140Z,103600.09
2019-03-28T23:36:14.777Z,103599.56
2019-03-28T23:41:19.891Z,103588.33
2019-03-28T23:46:22.782Z,103593.31
2019-03-28T23:51:25.465Z,103581.03
2019-03-28T23:56:29.230Z,103583.33
